Data for 10/19/2005

Time Sea-Level Adjusted Pressure Absolute Pressure Temperature Relative Humidity Dew Point   
(mb) (inHg) (mb) (inHg) (C) (F) (%) (C) (F)
00:05 1016 30 845 24.95 8.8 47.9 69 3.6 38.4
00:10 1016 30 845 24.95 8.7 47.6 70 3.6 38.4
00:15 1015 29.97 845 24.95 8.6 47.5 70 3.5 38.3
00:20 1015 29.97 845 24.95 8.6 47.4 71 3.6 38.4
00:25 1015 29.97 845 24.95 8.5 47.3 71 3.5 38.3
00:30 1015 29.97 845 24.95 8.3 47 71 3.4 38.2
00:35 1015 29.97 845 24.95 8.2 46.7 72 3.4 38.2
00:40 1015 29.97 845 24.95 8.1 46.6 72 3.4 38.2
00:45 1015 29.97 845 24.95 8.1 46.5 72 3.4 38
00:50 1015 29.97 845 24.95 8 46.4 73 3.4 38.2
00:55 1015 29.97 844 24.92 7.8 46.1 73 3.4 38.1
01:00 1015 29.97 845 24.95 7.8 46 73 3.3 37.9
01:05 1015 29.97 844 24.92 7.8 46.1 73 3.3 37.9
01:10 1015 29.97 844 24.92 7.9 46.1 73 3.3 38
01:15 1015 29.97 844 24.92 7.9 46.2 73 3.4 38
01:20 1015 29.97 844 24.92 7.8 46 73 3.3 38
01:25 1015 29.97 844 24.92 7.7 45.9 73 3.3 37.9
01:30 1015 29.97 844 24.92 7.7 45.8 73 3.2 37.8
01:35 1015 29.97 844 24.92 7.7 45.8 73 3.2 37.8
01:40 1015 29.97 844 24.92 7.7 45.9 74 3.3 37.9
01:45 1015 29.97 844 24.92 7.7 45.8 73 3.2 37.8
01:50 1015 29.97 844 24.92 7.7 45.9 73 3.2 37.8
01:55 1015 29.97 844 24.92 7.6 45.7 74 3.3 37.9
02:00 1015 29.97 844 24.92 7.6 45.6 74 3.3 37.9
02:05 1015 29.97 844 24.92 7.5 45.5 74 3.2 37.8
02:10 1015 29.97 844 24.92 7.5 45.5 74 3.2 37.8
02:15 1015 29.97 844 24.92 7.6 45.6 74 3.3 37.9
02:20 1015 29.97 844 24.92 7.6 45.6 74 3.3 37.9
02:25 1015 29.97 844 24.92 7.5 45.5 74 3.2 37.8
02:30 1015 29.97 844 24.92 7.5 45.5 74 3.2 37.8
02:35 1015 29.97 844 24.92 7.5 45.6 74 3.2 37.8
02:40 1015 29.97 844 24.92 7.6 45.7 74 3.2 37.8
02:45 1015 29.97 844 24.92 7.6 45.8 74 3.2 37.8
02:50 1015 29.97 844 24.92 7.6 45.7 74 3.2 37.8
02:55 1015 29.97 844 24.92 7.7 45.8 74 3.3 37.9
03:00 1015 29.97 844 24.92 7.6 45.7 74 3.3 37.9
03:05 1015 29.97 844 24.92 7.6 45.6 74 3.2 37.8
03:10 1015 29.97 844 24.92 7.6 45.7 74 3.2 37.8
03:15 1015 29.97 844 24.92 7.6 45.6 74 3.2 37.8
03:20 1015 29.97 844 24.92 7.5 45.5 74 3.2 37.8
03:25 1015 29.97 844 24.92 7.4 45.2 74 3.1 37.6
03:30 1015 29.97 844 24.92 7.3 45.2 74 3.1 37.5
03:35 1015 29.97 844 24.92 7.4 45.3 74 3.1 37.6
03:40 1015 29.97 844 24.92 7.4 45.4 74 3.1 37.6
03:45 1015 29.97 844 24.92 7.4 45.3 74 3.1 37.6
03:50 1015 29.97 844 24.92 7.3 45.2 75 3.1 37.7
03:55 1015 29.97 844 24.92 7.2 45 75 3.1 37.7
04:00 1015 29.97 844 24.92 7.1 44.8 75 3.1 37.6
04:05 1015 29.97 844 24.92 7.1 44.7 75 3 37.4
04:10 1015 29.97 844 24.92 7.1 44.8 75 2.9 37.2
04:15 1015 29.97 844 24.92 7.3 45.1 75 3.1 37.6
04:20 1015 29.97 844 24.92 7.2 45 75 3.1 37.5
04:25 1015 29.97 844 24.92 7.1 44.8 75 3.1 37.5
04:30 1015 29.97 844 24.92 7 44.6 76 3 37.5
04:35 1015 29.97 844 24.92 7 44.5 76 3.1 37.6
04:40 1015 29.97 844 24.92 7.1 44.7 76 3.1 37.7
04:45 1015 29.97 844 24.92 7 44.6 76 3.2 37.7
04:50 1015 29.97 844 24.92 6.7 44.1 77 3 37.5
04:55 1015 29.97 844 24.92 6.6 43.9 77 3 37.3
05:00 1015 29.97 844 24.92 6.6 43.8 78 2.9 37.3
05:05 1015 29.97 844 24.92 6.5 43.8 77 2.8 37.1
05:10 1015 29.97 844 24.92 6.7 44 77 2.9 37.3
05:15 1015 29.97 844 24.92 6.8 44.2 76 2.9 37.3
05:20 1015 29.97 844 24.92 6.8 44.3 77 3 37.4
05:25 1015 29.97 844 24.92 6.8 44.3 76 2.9 37.3
05:30 1015 29.97 844 24.92 6.8 44.3 76 2.9 37.2
05:35 1015 29.97 844 24.92 6.8 44.3 76 2.9 37.3
05:40 1015 29.97 844 24.92 6.9 44.4 76 3 37.3
05:45 1015 29.97 844 24.92 6.8 44.2 76 2.9 37.2
05:50 1015 29.97 844 24.92 6.7 44 77 2.9 37.2
05:55 1015 29.97 844 24.92 6.6 43.9 77 2.8 37.1
06:00 1015 29.97 844 24.92 6.5 43.8 77 2.7 36.9
06:05 1015 29.97 844 24.92 6.3 43.4 78 2.8 37
06:10 1015 29.97 844 24.92 6.4 43.6 77 2.6 36.7
06:15 1015 29.97 844 24.92 6.6 43.9 76 2.7 36.8
06:20 1015 29.97 844 24.92 6.7 44 76 2.7 36.9
06:25 1015 29.97 844 24.92 6.6 43.9 76 2.7 36.8
06:30 1015 29.97 844 24.92 6.4 43.5 77 2.7 36.8
06:35 1015 29.97 844 24.92 6.2 43.2 77 2.6 36.6
06:40 1015 29.97 844 24.92 6.2 43.1 77 2.5 36.5
06:45 1015 29.97 844 24.92 6.3 43.3 77 2.5 36.5
06:50 1015 29.97 844 24.92 6.5 43.6 76 2.5 36.5
06:55 1015 29.97 844 24.92 6.2 43.1 77 2.5 36.5
07:00 1015 29.97 844 24.92 6 42.8 78 2.4 36.3
07:05 1015 29.97 844 24.92 5.9 42.6 78 2.4 36.2
07:10 1015 29.97 844 24.92 5.8 42.5 78 2.3 36.1
07:15 1015 29.97 844 24.92 5.6 42.1 79 2.3 36.1
07:20 1015 29.97 844 24.92 5.5 41.9 79 2.2 35.9
07:25 1015 29.97 844 24.92 5.7 42.3 78 2.2 36
07:30 1015 29.97 844 24.92 5.6 42.1 78 2.1 35.7
07:35 1015 29.97 844 24.92 5.4 41.8 78 2 35.6
07:40 1015 29.97 844 24.92 5.5 41.9 78 1.9 35.5
07:45 1015 29.97 844 24.92 5.7 42.3 77 2 35.6
07:50 1015 29.97 844 24.92 5.9 42.7 76 2.1 35.7
07:55 1015 29.97 844 24.92 6.1 42.9 76 2.1 35.8
08:00 1015 29.97 844 24.92 5.9 42.6 77 2.2 35.9
08:05 1015 29.97 844 24.92 5.7 42.2 77 2 35.6
08:10 1015 29.97 844 24.92 5.8 42.4 77 2 35.6
08:15 1015 29.97 844 24.92 5.9 42.6 76 1.9 35.5
08:20 1015 29.97 844 24.92 6.3 43.4 74 2 35.6
08:25 1015 29.97 844 24.92 6.9 44.4 71 2.1 35.7
08:30 1015 29.97 844 24.92 7.3 45.2 70 2.3 36.1
08:35 1015 29.97 844 24.92 7.5 45.5 69 2.2 36
08:40 1015 29.97 844 24.92 7.7 45.9 69 2.3 36.2
08:45 1015 29.97 844 24.92 8 46.4 68 2.4 36.4
08:50 1015 29.97 844 24.92 8.4 47.1 66 2.5 36.5
08:55 1015 29.97 844 24.92 8.6 47.4 66 2.6 36.7
09:00 1015 29.97 844 24.92 8.6 47.5 66 2.6 36.7
09:05 1015 29.97 844 24.92 8.8 47.8 66 2.7 36.9
09:10 1015 29.97 844 24.92 9 48.2 64 2.7 36.8
09:15 1015 29.97 844 24.92 9.1 48.4 65 2.9 37.3
09:20 1015 29.97 844 24.92 9.1 48.4 65 2.9 37.2
09:25 1015 29.97 844 24.92 9.5 49 64 3 37.3
09:30 1015 29.97 844 24.92 9.7 49.5 63 3 37.5
09:35 1015 29.97 844 24.92 10.4 50.6 60 3 37.4
09:40 1015 29.97 844 24.92 10.7 51.2 58 2.8 37.1
09:45 1015 29.97 844 24.92 11 51.8 57 2.8 37.1
09:50 1015 29.97 844 24.92 11.2 52.2 57 3.2 37.7
09:55 1015 29.97 844 24.92 11.8 53.2 55 3.1 37.5
10:00 1015 29.97 844 24.92 12.5 54.5 52 2.9 37.2
10:05 1015 29.97 844 24.92 12.9 55.2 51 3.2 37.7
10:10 1015 29.97 844 24.92 13.5 56.3 49 3.1 37.5
10:15 1015 29.97 844 24.92 14.2 57.5 47 3.2 37.7
10:20 1015 29.97 844 24.92 13.6 56.4 49 3.3 37.9
10:25 1015 29.97 844 24.92 14.2 57.5 47 3 37.4
10:30 1015 29.97 844 24.92 14.7 58.5 47 3.6 38.5
10:35 1015 29.97 844 24.92 13.7 56.6 49 3.3 37.9
10:40 1015 29.97 844 24.92 14.6 58.2 45 2.8 37.1
10:45 1015 29.97 844 24.92 15.2 59.3 44 3.1 37.5
10:50 1014 29.94 844 24.92 15.3 59.5 44 3.1 37.6
10:55 1014 29.94 844 24.92 14.9 58.8 45 3.3 37.9
11:00 1014 29.94 844 24.92 15.2 59.3 43 2.6 36.8
11:05 1014 29.94 844 24.92 15.9 60.5 43 3.3 38
11:10 1014 29.94 844 24.92 16.2 61.1 45 4.2 39.5
11:15 1014 29.94 844 24.92 15.1 59.1 46 3.7 38.6
11:20 1014 29.94 843 24.89 16 60.8 42 3.2 37.7
11:25 1014 29.94 843 24.89 17 62.7 40 3.3 38
11:30 1014 29.94 843 24.89 17 62.6 42 4.2 39.5
11:35 1014 29.94 843 24.89 17.1 62.8 42 4.2 39.6
11:40 1014 29.94 844 24.92 16.9 62.5 45 5.1 41.1
11:45 1014 29.94 843 24.89 16.3 61.3 46 4.9 40.8
11:50 1014 29.94 843 24.89 15.5 60 49 4.9 40.8
11:55 1014 29.94 843 24.89 15.5 59.9 47 4.4 40
12:00 1014 29.94 843 24.89 16.2 61.2 46 4.6 40.3
12:05 1014 29.94 843 24.89 16.9 62.5 44 4.9 40.8
12:10 1014 29.94 843 24.89 16.2 61.1 47 5 41.1
12:15 1014 29.94 843 24.89 16.4 61.5 45 4.5 40.1
12:20 1014 29.94 843 24.89 17 62.6 44 4.7 40.4
12:25 1014 29.94 843 24.89 16.6 61.8 44 4.3 39.7
12:30 1014 29.94 843 24.89 16.7 62 44 4.5 40.2
12:35 1014 29.94 843 24.89 16.4 61.5 45 4.5 40.1
12:40 1014 29.94 843 24.89 16.5 61.8 45 4.6 40.2
12:45 1014 29.94 843 24.89 16.5 61.6 45 4.7 40.4
12:50 1014 29.94 843 24.89 16.4 61.4 44 4.3 39.7
12:55 1014 29.94 843 24.89 17.1 62.8 42 4.3 39.7
13:00 1013 29.91 843 24.89 17.7 63.9 41 4.4 39.9
13:05 1013 29.91 843 24.89 18 64.3 41 4.5 40.1
13:10 1013 29.91 843 24.89 18.3 64.9 40 4.6 40.3
13:15 1013 29.91 843 24.89 18.4 65.2 41 5.2 41.3
13:20 1013 29.91 843 24.89 18.1 64.6 42 4.9 40.9
13:25 1013 29.91 843 24.89 17.9 64.2 41 4.6 40.4
13:30 1013 29.91 842 24.86 17.8 64 41 4.5 40.1
13:35 1013 29.91 842 24.86 18.3 64.9 40 4.6 40.3
13:40 1013 29.91 842 24.86 18 64.3 41 4.6 40.3
13:45 1013 29.91 842 24.86 18.1 64.7 42 5.1 41.1
13:50 1013 29.91 842 24.86 18.2 64.8 40 4.5 40
13:55 1013 29.91 842 24.86 18.7 65.7 40 4.9 40.8
14:00 1013 29.91 842 24.86 18.8 65.8 38 4.2 39.6
14:05 1013 29.91 842 24.86 19.1 66.4 38 4.4 40
14:10 1013 29.91 842 24.86 19.3 66.7 38 4.8 40.6
14:15 1013 29.91 842 24.86 18.9 66 39 4.7 40.4
14:20 1013 29.91 842 24.86 18.7 65.7 40 4.9 40.8
14:25 1013 29.91 842 24.86 18.8 65.9 38 4.4 39.9
14:30 1013 29.91 842 24.86 19.6 67.3 35 4.1 39.3
14:35 1013 29.91 842 24.86 19.4 66.9 35 3.8 38.9
14:40 1013 29.91 842 24.86 19.4 66.9 35 3.6 38.5
14:45 1013 29.91 842 24.86 20.3 68.5 32 3.4 38.1
14:50 1013 29.91 842 24.86 20.2 68.4 33 3.4 38.1
14:55 1013 29.91 842 24.86 20.6 69 32 3.3 38
15:00 1013 29.91 842 24.86 20.7 69.2 28 1.5 34.7
15:05 1013 29.91 842 24.86 20.2 68.4 28 1.2 34.1
15:10 1013 29.91 842 24.86 21 69.9 27 1.5 34.7
15:15 1013 29.91 842 24.86 21.2 70.1 29 2.7 36.9
15:20 1013 29.91 842 24.86 20.4 68.6 28 1.6 34.9
15:25 1012 29.88 842 24.86 20.7 69.3 30 2.5 36.4
15:30 1012 29.88 842 24.86 19.9 67.9 30 2 35.6
15:35 1012 29.88 842 24.86 21 69.7 28 1.9 35.5
15:40 1012 29.88 842 24.86 21.4 70.4 29 2.5 36.6
15:45 1012 29.88 842 24.86 21.1 70.1 27 1.8 35.2
15:50 1012 29.88 842 24.86 21.4 70.6 28 2.2 36
15:55 1012 29.88 841 24.83 21.4 70.5 28 2.1 35.8
16:00 1012 29.88 841 24.83 21.2 70.2 28 2.4 36.3
16:05 1012 29.88 841 24.83 20.6 69 29 2.1 35.8
16:10 1012 29.88 841 24.83 20.3 68.5 30 2.3 36.2
16:15 1012 29.88 841 24.83 20 68.1 30 2.2 35.9
16:20 1012 29.88 841 24.83 20 68 31 2.3 36.2
16:25 1012 29.88 841 24.83 20.1 68.2 31 2.4 36.3
16:30 1012 29.88 841 24.83 20 67.9 31 2.4 36.3
16:35 1012 29.88 841 24.83 19.7 67.5 31 2.4 36.2
16:40 1012 29.88 841 24.83 19.6 67.3 31 2.3 36.2
16:45 1012 29.88 841 24.83 19.4 66.9 34 3.5 38.2
16:50 1012 29.88 841 24.83 19.4 66.9 31 2.2 36
16:55 1012 29.88 841 24.83 19.5 67 32 2.3 36.1
17:00 1012 29.88 841 24.83 19.3 66.8 32 2.4 36.3
17:05 1012 29.88 841 24.83 19.4 67 32 2.5 36.5
17:10 1012 29.88 842 24.86 19.6 67.3 33 3 37.4
17:15 1012 29.88 842 24.86 19.6 67.2 34 3.3 37.9
17:20 1013 29.91 842 24.86 19.4 66.8 37 4.6 40.3
17:25 1013 29.91 842 24.86 19.1 66.3 37 4.4 39.9
17:30 1013 29.91 842 24.86 18.8 65.9 39 4.7 40.4
17:35 1013 29.91 842 24.86 18.6 65.5 40 4.8 40.6
17:40 1013 29.91 842 24.86 18.4 65.2 40 4.5 40.2
17:45 1013 29.91 842 24.86 18.4 65.1 41 4.9 40.8
17:50 1013 29.91 842 24.86 18.4 65.2 40 4.8 40.6
17:55 1013 29.91 842 24.86 18.4 65 40 4.6 40.3
18:00 1013 29.91 842 24.86 18.4 65 40 4.8 40.6
18:05 1013 29.91 842 24.86 18.1 64.7 43 5.4 41.8
18:10 1013 29.91 842 24.86 18 64.4 42 5.1 41.1
18:15 1013 29.91 842 24.86 17.9 64.3 41 4.8 40.6
18:20 1013 29.91 842 24.86 17.8 64.1 43 5.1 41.2
18:25 1013 29.91 842 24.86 17.8 64 43 5.1 41.3
18:30 1013 29.91 842 24.86 17.5 63.5 44 5.1 41.3
18:35 1013 29.91 842 24.86 17.3 63.1 44 5 41.1
18:40 1013 29.91 842 24.86 17.2 63 44 5.1 41.2
18:45 1013 29.91 842 24.86 17 62.7 46 5.3 41.6
18:50 1013 29.91 842 24.86 17 62.5 47 5.7 42.3
18:55 1013 29.91 842 24.86 16.6 61.9 50 6.1 43
19:00 1013 29.91 842 24.86 16.1 61 53 6.7 44.1
19:05 1013 29.91 842 24.86 16.1 61 52 6.3 43.4
19:10 1013 29.91 843 24.89 15.9 60.6 53 6.4 43.4
19:15 1013 29.91 842 24.86 15.5 59.8 56 6.9 44.4
19:20 1013 29.91 842 24.86 14.7 58.5 61 7.3 45.2
19:25 1013 29.91 842 24.86 14.4 57.9 58 6.4 43.5
19:30 1013 29.91 843 24.89 14.2 57.5 60 6.6 43.9
19:35 1013 29.91 843 24.89 14.1 57.4 62 7.1 44.7
19:40 1013 29.91 843 24.89 14.3 57.7 57 5.8 42.5
19:45 1013 29.91 842 24.86 14.7 58.4 55 5.9 42.6
19:50 1013 29.91 843 24.89 14.9 58.9 53 5.6 42.1
19:55 1013 29.91 842 24.86 14.9 58.8 55 6 42.8
20:00 1013 29.91 843 24.89 14.9 58.8 53 5.6 42.1
20:05 1013 29.91 843 24.89 14.4 57.8 61 7 44.5
20:10 1013 29.91 843 24.89 13.9 56.9 61 6.6 43.9
20:15 1014 29.94 843 24.89 14 57.2 57 5.7 42.3
20:20 1014 29.94 843 24.89 14.1 57.4 59 6.3 43.3
20:25 1014 29.94 843 24.89 14.5 58.1 48 3.7 38.7
20:30 1014 29.94 843 24.89 15.3 59.6 49 4.7 40.4
20:35 1014 29.94 843 24.89 15.4 59.6 55 6.5 43.7
20:40 1014 29.94 843 24.89 14.2 57.5 61 6.8 44.3
20:45 1014 29.94 843 24.89 14 57.1 57 5.6 42.1
20:50 1015 29.97 844 24.92 14.3 57.8 55 5.5 41.8
20:55 1015 29.97 844 24.92 14.4 57.9 54 5.2 41.4
21:00 1015 29.97 844 24.92 14.3 57.8 54 5.3 41.5
21:05 1015 29.97 844 24.92 14.1 57.4 57 5.9 42.6
21:10 1015 29.97 844 24.92 13.7 56.6 60 6.2 43.1
21:15 1016 30 845 24.95 13.2 55.8 63 6.4 43.6
21:20 1016 30 845 24.95 12.6 54.7 67 6.7 44.1
21:25 1016 30 845 24.95 11.9 53.4 74 7.4 45.4
21:30 1016 30 845 24.95 11.3 52.4 76 7.2 45
21:35 1016 30 845 24.95 10.9 51.6 76 6.9 44.4
21:40 1016 30 845 24.95 10.7 51.3 75 6.6 43.8
21:45 1016 30 845 24.95 10.7 51.2 74 6.2 43.1
21:50 1016 30 845 24.95 10.6 51.1 74 6.3 43.3
21:55 1016 30 846 24.98 10.6 51 74 6.1 43
22:00 1017 30.03 846 24.98 10.5 50.9 74 6.1 43
22:05 1017 30.03 846 24.98 10.3 50.5 76 6.3 43.3
22:10 1017 30.03 846 24.98 10.1 50.2 76 6 42.8
22:15 1017 30.03 846 24.98 9.9 49.8 78 6.3 43.3
22:20 1017 30.03 846 24.98 9.8 49.6 78 6.1 43
22:25 1017 30.03 846 24.98 9.4 48.9 79 6 42.8
22:30 1017 30.03 846 24.98 9.2 48.6 80 6.1 42.9
22:35 1017 30.03 846 24.98 9.4 48.9 79 5.9 42.7
22:40 1017 30.03 846 24.98 9.4 49 80 6.2 43.1
22:45 1017 30.03 846 24.98 9.6 49.2 78 5.9 42.7
22:50 1017 30.03 846 24.98 9.3 48.7 79 5.9 42.6
22:55 1017 30.03 846 24.98 9 48.1 79 5.5 41.9
23:00 1017 30.03 847 25.01 9 48.2 79 5.5 42
23:05 1017 30.03 847 25.01 9.1 48.4 78 5.4 41.7
23:10 1017 30.03 847 25.01 9.2 48.6 76 5.2 41.4
23:15 1017 30.03 847 25.01 9.4 48.9 75 5.2 41.4
23:20 1017 30.03 847 25.01 9.4 48.9 74 5.1 41.1
23:25 1017 30.03 847 25.01 9.5 49.1 74 5.1 41.2
23:30 1017 30.03 847 25.01 9.6 49.2 76 5.6 42
23:35 1017 30.03 847 25.01 9.6 49.2 75 5.3 41.6
23:40 1017 30.03 847 25.01 9.5 49.1 75 5.3 41.5
23:45 1017 30.03 847 25.01 9.4 48.9 76 5.3 41.6
23:50 1017 30.03 847 25.01 9.2 48.6 77 5.3 41.6
23:55 1017 30.03 847 25.01 9.1 48.3 77 5.2 41.4
24:00 1018 30.06 847 25.01 9 48.1 78 5.3 41.5